createdAt,value
2018-02-26T00:00:55.530Z,-1.80
2018-02-26T00:03:23.094Z,-1.80
2018-02-26T00:05:50.557Z,-1.80
2018-02-26T00:08:18.248Z,-1.80
2018-02-26T00:10:46.187Z,-1.90
2018-02-26T00:13:13.669Z,-1.90
2018-02-26T00:15:42.297Z,-1.90
2018-02-26T00:18:09.850Z,-1.90
2018-02-26T00:20:37.311Z,-2.00
2018-02-26T00:23:04.831Z,-2.00
2018-02-26T00:25:32.299Z,-2.00
2018-02-26T00:27:59.844Z,-2.00
2018-02-26T00:30:27.418Z,-2.00
2018-02-26T00:32:54.977Z,-2.00
2018-02-26T00:35:22.624Z,-2.10
2018-02-26T00:37:50.713Z,-2.00
2018-02-26T00:40:18.169Z,-2.00
2018-02-26T00:42:45.652Z,-2.00
2018-02-26T00:45:13.205Z,-2.00
2018-02-26T00:47:40.674Z,-2.00
2018-02-26T00:50:08.148Z,-2.00
2018-02-26T00:52:36.012Z,-2.00
2018-02-26T00:55:03.490Z,-2.00
2018-02-26T00:57:31.440Z,-2.10
2018-02-26T00:59:58.909Z,-2.10
2018-02-26T01:02:26.464Z,-2.10
2018-02-26T01:04:54.266Z,-2.10
2018-02-26T01:07:22.149Z,-2.10
2018-02-26T01:09:49.620Z,-2.10
2018-02-26T01:12:17.093Z,-2.20
2018-02-26T01:14:44.625Z,-2.20
2018-02-26T01:17:12.112Z,-2.20
2018-02-26T01:19:39.620Z,-2.20
2018-02-26T01:22:07.136Z,-2.20
2018-02-26T01:24:34.614Z,-2.20
2018-02-26T01:27:02.075Z,-2.30
2018-02-26T01:29:29.542Z,-2.30
2018-02-26T01:31:57.039Z,-2.30
2018-02-26T01:34:24.599Z,-2.30
2018-02-26T01:36:52.066Z,-2.40
2018-02-26T01:39:19.945Z,-2.40
2018-02-26T01:41:47.839Z,-2.30
2018-02-26T01:44:15.323Z,-2.30
2018-02-26T01:46:42.836Z,-2.40
2018-02-26T01:49:10.720Z,-2.40
2018-02-26T01:51:38.177Z,-2.40
2018-02-26T01:54:06.162Z,-2.40
2018-02-26T01:56:34.010Z,-2.40
2018-02-26T01:59:01.889Z,-2.50
2018-02-26T02:01:29.815Z,-2.50
2018-02-26T02:03:57.237Z,-2.50
2018-02-26T02:06:24.831Z,-2.50
2018-02-26T02:08:52.307Z,-2.50
2018-02-26T02:11:19.844Z,-2.50
2018-02-26T02:13:47.356Z,-2.50
2018-02-26T02:16:14.918Z,-2.50
2018-02-26T02:18:42.476Z,-2.50
2018-02-26T02:21:10.072Z,-2.60
2018-02-26T02:23:38.004Z,-2.60
2018-02-26T02:26:05.477Z,-2.60
2018-02-26T02:28:32.954Z,-2.60
2018-02-26T02:31:00.409Z,-2.60
2018-02-26T02:33:27.881Z,-2.60
2018-02-26T02:35:55.770Z,-2.70
2018-02-26T02:38:23.249Z,-2.70
2018-02-26T02:40:50.713Z,-2.80
2018-02-26T02:43:18.193Z,-2.80
2018-02-26T02:45:45.682Z,-2.90
2018-02-26T02:48:13.154Z,-2.90
2018-02-26T02:50:40.613Z,-2.90
2018-02-26T02:53:08.116Z,-2.90
2018-02-26T02:55:35.563Z,-2.90
2018-02-26T02:58:03.122Z,-2.90
2018-02-26T03:00:30.997Z,-3.00
2018-02-26T03:02:58.454Z,-3.00
2018-02-26T03:05:26.602Z,-3.10
2018-02-26T03:07:54.073Z,-3.10
2018-02-26T03:10:21.940Z,-3.10
2018-02-26T03:12:49.431Z,-3.10
2018-02-26T03:15:16.956Z,-3.00
2018-02-26T03:17:44.423Z,-3.00
2018-02-26T03:20:11.881Z,-3.10
2018-02-26T03:22:39.357Z,-3.10
2018-02-26T03:25:07.207Z,-3.10
2018-02-26T03:27:34.690Z,-3.10
2018-02-26T03:30:02.647Z,-3.10
2018-02-26T03:32:30.454Z,-3.10
2018-02-26T03:34:58.305Z,-3.10
2018-02-26T03:37:26.185Z,-3.20
2018-02-26T03:39:54.036Z,-3.20
2018-02-26T03:42:21.528Z,-3.20
2018-02-26T03:44:49.463Z,-3.20
2018-02-26T03:47:16.933Z,-3.20
2018-02-26T03:49:44.470Z,-3.20
2018-02-26T03:52:11.926Z,-3.10
2018-02-26T03:54:39.405Z,-3.10
2018-02-26T03:57:06.896Z,-3.10
2018-02-26T03:59:34.758Z,-3.20
2018-02-26T04:02:02.639Z,-3.20
2018-02-26T04:04:30.621Z,-3.20
2018-02-26T04:06:58.489Z,-3.20
2018-02-26T04:09:26.746Z,-3.20
2018-02-26T04:11:54.311Z,-3.20
2018-02-26T04:14:21.799Z,-3.20
2018-02-26T04:16:49.655Z,-3.20
2018-02-26T04:19:17.540Z,-3.20
2018-02-26T04:21:45.028Z,-3.20
2018-02-26T04:24:12.485Z,-3.20
2018-02-26T04:26:39.987Z,-3.30
2018-02-26T04:29:07.472Z,-3.30
2018-02-26T04:31:35.007Z,-3.40
2018-02-26T04:34:02.480Z,-3.30
2018-02-26T04:36:29.980Z,-3.40
2018-02-26T04:38:57.856Z,-3.50
2018-02-26T04:41:25.594Z,-3.50
2018-02-26T04:43:53.058Z,-3.40
2018-02-26T04:46:20.609Z,-3.40
2018-02-26T04:48:48.084Z,-3.40
2018-02-26T04:51:15.953Z,-3.50
2018-02-26T04:53:43.422Z,-3.50
2018-02-26T04:56:10.889Z,-3.40
2018-02-26T04:58:38.732Z,-3.50
2018-02-26T05:01:06.209Z,-3.50
2018-02-26T05:03:34.131Z,-3.40
2018-02-26T05:06:01.622Z,-3.50
2018-02-26T05:08:29.091Z,-3.50
2018-02-26T05:10:56.599Z,-3.40
2018-02-26T05:13:24.065Z,-3.50
2018-02-26T05:15:51.547Z,-3.40
2018-02-26T05:18:19.023Z,-3.40
2018-02-26T05:20:46.512Z,-3.40
2018-02-26T05:23:13.977Z,-3.40
2018-02-26T05:25:41.868Z,-3.40
2018-02-26T05:28:09.737Z,-3.40
2018-02-26T05:30:37.726Z,-3.50
2018-02-26T05:33:05.197Z,-3.50
2018-02-26T05:35:32.751Z,-3.40
2018-02-26T05:38:00.230Z,-3.40
2018-02-26T05:40:27.712Z,-3.40
2018-02-26T05:42:55.226Z,-3.50
2018-02-26T05:45:23.169Z,-3.50
2018-02-26T05:47:51.551Z,-3.50
2018-02-26T05:50:19.101Z,-3.60
2018-02-26T05:52:46.578Z,-3.60
2018-02-26T05:55:14.074Z,-3.70
2018-02-26T05:57:41.593Z,-3.70
2018-02-26T06:00:09.052Z,-3.70
2018-02-26T06:02:36.592Z,-3.70
2018-02-26T06:05:04.056Z,-3.70
2018-02-26T06:07:31.536Z,-3.70
2018-02-26T06:09:59.016Z,-3.70
2018-02-26T06:12:26.529Z,-3.70
2018-02-26T06:14:54.002Z,-3.70
2018-02-26T06:17:21.541Z,-3.80
2018-02-26T06:19:49.401Z,-3.70
2018-02-26T06:22:17.279Z,-3.80
2018-02-26T06:24:44.744Z,-3.80
2018-02-26T06:27:12.264Z,-3.70
2018-02-26T06:29:39.768Z,-3.70
2018-02-26T06:32:07.305Z,-3.70
2018-02-26T06:34:34.782Z,-3.70
2018-02-26T06:37:02.447Z,-3.60
2018-02-26T06:39:30.598Z,-3.50
2018-02-26T06:41:58.072Z,-3.50
2018-02-26T06:44:25.545Z,-3.50
2018-02-26T06:46:53.402Z,-3.40
2018-02-26T06:49:21.275Z,-3.50
2018-02-26T06:51:49.296Z,-3.50
2018-02-26T06:54:16.785Z,-3.50
2018-02-26T06:56:44.275Z,-3.50
2018-02-26T06:59:12.244Z,-3.40
2018-02-26T07:01:40.146Z,-3.30
2018-02-26T07:04:07.629Z,-3.30
2018-02-26T07:06:35.073Z,-3.30
2018-02-26T07:09:02.554Z,-3.20
2018-02-26T07:11:30.039Z,-3.20
2018-02-26T07:13:57.544Z,-3.10
2018-02-26T07:16:25.916Z,-3.00
2018-02-26T07:18:53.815Z,-2.90
2018-02-26T07:21:21.346Z,-2.90
2018-02-26T07:23:49.244Z,-2.80
2018-02-26T07:26:16.724Z,-2.80
2018-02-26T07:28:44.223Z,-2.70
2018-02-26T07:31:11.742Z,-2.60
2018-02-26T07:33:39.203Z,-2.50
2018-02-26T07:36:06.724Z,-2.50
2018-02-26T07:38:34.777Z,-2.40
2018-02-26T07:41:02.256Z,-2.40
2018-02-26T07:43:29.827Z,-2.30
2018-02-26T07:45:57.289Z,-2.30
2018-02-26T07:48:25.181Z,-2.20
2018-02-26T07:50:52.724Z,-2.20
2018-02-26T07:53:21.003Z,-2.10
2018-02-26T07:55:48.889Z,-2.00
2018-02-26T07:58:16.967Z,-1.90
2018-02-26T08:00:44.456Z,-1.90
2018-02-26T08:03:11.958Z,-1.90
2018-02-26T08:05:39.413Z,-1.90
2018-02-26T08:08:06.906Z,-1.80
2018-02-26T08:10:34.849Z,-1.70
2018-02-26T08:13:02.307Z,-1.70
2018-02-26T08:15:29.873Z,-1.60
2018-02-26T08:17:57.380Z,-1.70
2018-02-26T08:20:24.894Z,-1.70
2018-02-26T08:22:52.370Z,-1.80
2018-02-26T08:25:19.865Z,-1.70
2018-02-26T08:27:47.824Z,-1.50
2018-02-26T08:30:15.772Z,-1.40
2018-02-26T08:32:43.312Z,-1.40
2018-02-26T08:35:11.436Z,-1.40
2018-02-26T08:37:39.436Z,-1.50
2018-02-26T08:40:06.921Z,-1.50
2018-02-26T08:42:34.542Z,-1.50
2018-02-26T08:45:02.508Z,-1.50
2018-02-26T08:47:29.987Z,-1.50
2018-02-26T08:49:57.457Z,-1.50
2018-02-26T08:52:24.908Z,-1.40
2018-02-26T08:54:52.832Z,-1.50
2018-02-26T08:57:20.327Z,-1.50
2018-02-26T08:59:48.183Z,-1.40
2018-02-26T09:02:15.798Z,-1.40
2018-02-26T09:04:43.265Z,-1.50
2018-02-26T09:07:10.778Z,-1.40
2018-02-26T09:09:38.469Z,-1.30
2018-02-26T09:12:06.334Z,-1.20
2018-02-26T09:14:34.295Z,-1.10
2018-02-26T09:17:01.796Z,-1.10
2018-02-26T09:19:29.651Z,-1.30
2018-02-26T09:21:57.348Z,-1.30
2018-02-26T09:24:24.997Z,-1.20
2018-02-26T09:26:52.472Z,-1.10
2018-02-26T09:29:19.940Z,-1.20
2018-02-26T09:31:47.537Z,-1.20
2018-02-26T09:34:15.095Z,-1.30
2018-02-26T09:36:42.645Z,-1.30
2018-02-26T09:39:10.281Z,-1.10
2018-02-26T09:41:37.822Z,-1.00
2018-02-26T09:44:05.868Z,-0.70
2018-02-26T09:46:33.442Z,-0.70
2018-02-26T09:49:00.984Z,-0.60
2018-02-26T09:51:28.465Z,-0.60
2018-02-26T09:53:56.011Z,-0.60
2018-02-26T09:56:23.581Z,-0.60
2018-02-26T09:58:51.048Z,-0.70
2018-02-26T10:01:18.508Z,-0.60
2018-02-26T10:03:46.060Z,-0.80
2018-02-26T10:06:13.528Z,-0.90
2018-02-26T10:08:41.009Z,-0.80
2018-02-26T10:11:08.885Z,-0.70
2018-02-26T10:13:36.736Z,-0.70
2018-02-26T10:16:04.218Z,-0.70
2018-02-26T10:18:32.165Z,-0.70
2018-02-26T10:20:59.626Z,-0.70
2018-02-26T10:23:27.181Z,-0.60
2018-02-26T10:25:54.707Z,-0.60
2018-02-26T10:28:22.155Z,-0.50
2018-02-26T10:30:49.768Z,-0.30
2018-02-26T10:33:17.268Z,-0.30
2018-02-26T10:35:44.765Z,-0.10
2018-02-26T10:38:12.241Z,-0.10
2018-02-26T10:40:39.716Z,-0.10
2018-02-26T10:58:10.017Z,0.60
2018-02-26T11:00:38.235Z,0.70
2018-02-26T11:03:06.789Z,0.70
2018-02-26T11:05:34.594Z,0.70
2018-02-26T11:08:02.087Z,0.70
2018-02-26T11:10:29.526Z,0.60
2018-02-26T11:12:56.987Z,0.50
2018-02-26T11:15:24.845Z,0.40
2018-02-26T11:17:52.324Z,0.40
2018-02-26T11:20:20.166Z,0.40
2018-02-26T11:22:47.613Z,0.30
2018-02-26T11:25:15.091Z,0.40
2018-02-26T11:27:42.538Z,0.40
2018-02-26T11:30:09.994Z,0.60
2018-02-26T11:32:37.466Z,0.40
2018-02-26T11:35:04.913Z,0.10
2018-02-26T11:37:32.359Z,0.00
2018-02-26T11:39:59.805Z,0.00
2018-02-26T11:42:29.204Z,0.00
2018-02-26T11:44:57.083Z,0.00
2018-02-26T11:47:24.585Z,0.00
2018-02-26T11:49:52.027Z,0.00
2018-02-26T11:52:19.491Z,-0.10
2018-02-26T11:54:47.615Z,0.00
2018-02-26T11:57:15.078Z,0.00
2018-02-26T11:59:42.536Z,0.00
2018-02-26T12:02:10.008Z,0.00
2018-02-26T12:04:37.452Z,0.10
2018-02-26T12:07:04.895Z,0.10
2018-02-26T12:09:32.387Z,0.30
2018-02-26T12:11:59.832Z,0.30
2018-02-26T12:14:27.290Z,0.50
2018-02-26T12:16:55.645Z,0.60
2018-02-26T12:19:23.109Z,0.50
2018-02-26T12:21:50.566Z,0.30
2018-02-26T12:24:18.432Z,0.20
2018-02-26T12:26:46.056Z,0.10
2018-02-26T12:29:13.501Z,0.20
2018-02-26T12:31:40.954Z,0.40
2018-02-26T12:34:08.405Z,0.40
2018-02-26T12:36:35.860Z,0.50
2018-02-26T12:39:03.309Z,0.50
2018-02-26T12:41:30.776Z,0.50
2018-02-26T12:43:58.246Z,0.40
2018-02-26T12:46:25.720Z,0.30
2018-02-26T12:48:53.169Z,0.10
2018-02-26T12:51:20.622Z,0.20
2018-02-26T12:53:50.362Z,0.30
2018-02-26T12:56:17.806Z,0.30
2018-02-26T12:58:45.247Z,0.30
2018-02-26T13:01:13.145Z,0.40
2018-02-26T13:03:43.657Z,0.40
2018-02-26T13:06:11.522Z,0.70
2018-02-26T13:08:39.367Z,0.70
2018-02-26T13:11:06.820Z,0.70
2018-02-26T13:13:34.262Z,0.70
2018-02-26T13:16:01.720Z,0.70
2018-02-26T13:18:29.180Z,0.70
2018-02-26T13:20:56.634Z,0.80
2018-02-26T13:23:24.117Z,0.70
2018-02-26T13:25:51.592Z,0.70
2018-02-26T13:28:19.045Z,0.70
2018-02-26T13:30:46.512Z,0.80
2018-02-26T13:33:13.958Z,0.80
2018-02-26T13:35:41.414Z,0.70
2018-02-26T13:38:08.896Z,0.60
2018-02-26T13:40:36.338Z,0.50
2018-02-26T13:43:03.796Z,0.50
2018-02-26T13:45:31.753Z,0.50
2018-02-26T13:47:59.596Z,0.30
2018-02-26T13:50:27.075Z,0.30
2018-02-26T13:52:54.942Z,0.30
2018-02-26T13:55:22.792Z,0.30
2018-02-26T13:57:50.286Z,0.30
2018-02-26T14:00:18.145Z,0.60
2018-02-26T14:02:45.673Z,0.60
2018-02-26T14:05:13.172Z,0.50
2018-02-26T14:07:40.663Z,0.50
2018-02-26T14:10:08.142Z,0.50
2018-02-26T14:12:35.589Z,0.40
2018-02-26T14:15:03.106Z,0.30
2018-02-26T14:17:30.924Z,0.20
2018-02-26T14:19:58.382Z,0.30
2018-02-26T14:22:26.263Z,0.20
2018-02-26T14:24:53.714Z,0.10
2018-02-26T14:27:21.276Z,0.20
2018-02-26T14:29:48.727Z,0.40
2018-02-26T14:32:16.660Z,0.50
2018-02-26T14:34:44.174Z,0.60
2018-02-26T14:37:11.671Z,0.60
2018-02-26T14:39:39.542Z,0.60
2018-02-26T14:42:07.394Z,0.60
2018-02-26T14:44:34.868Z,0.60
2018-02-26T14:47:02.725Z,0.70
2018-02-26T14:49:30.602Z,0.50
2018-02-26T14:51:58.485Z,0.40
2018-02-26T14:54:27.193Z,0.20
2018-02-26T14:56:54.686Z,0.20
2018-02-26T14:59:22.167Z,0.00
2018-02-26T15:01:49.774Z,0.00
2018-02-26T15:04:17.249Z,0.00
2018-02-26T15:06:44.749Z,0.00
2018-02-26T15:09:12.214Z,0.00
2018-02-26T15:11:39.785Z,0.10
2018-02-26T15:14:07.353Z,0.10
2018-02-26T15:16:34.809Z,0.10
2018-02-26T15:19:02.369Z,0.00
2018-02-26T15:21:29.835Z,-0.10
2018-02-26T15:23:57.340Z,-0.10
2018-02-26T15:26:24.809Z,-0.10
2018-02-26T15:28:52.310Z,-0.20
2018-02-26T15:31:19.886Z,-0.30
2018-02-26T15:33:47.345Z,-0.30
2018-02-26T15:36:14.802Z,-0.30
2018-02-26T15:38:42.259Z,-0.20
2018-02-26T15:41:09.731Z,-0.10
2018-02-26T15:43:37.280Z,0.00
2018-02-26T15:46:04.767Z,0.00
2018-02-26T15:48:32.233Z,0.10
2018-02-26T15:50:59.716Z,0.10
2018-02-26T15:53:27.170Z,-0.20
2018-02-26T15:55:55.093Z,-0.40
2018-02-26T15:58:22.582Z,-0.40
2018-02-26T16:00:50.031Z,-0.50
2018-02-26T16:03:17.498Z,-0.60
2018-02-26T16:05:44.953Z,-0.60
2018-02-26T16:08:12.563Z,-0.60
2018-02-26T16:10:40.017Z,-0.60
2018-02-26T16:13:07.866Z,-0.70
2018-02-26T16:15:35.422Z,-0.70
2018-02-26T16:18:02.980Z,-0.60
2018-02-26T16:20:30.478Z,-0.70
2018-02-26T16:22:58.413Z,-0.70
2018-02-26T16:25:25.971Z,-0.70
2018-02-26T16:27:53.443Z,-0.80
2018-02-26T16:30:21.021Z,-0.70
2018-02-26T16:32:48.595Z,-0.90
2018-02-26T16:35:19.728Z,-1.10
2018-02-26T16:37:47.211Z,-1.00
2018-02-26T16:40:15.093Z,-1.10
2018-02-26T16:42:42.610Z,-1.10
2018-02-26T16:45:10.185Z,-1.10
2018-02-26T16:47:37.754Z,-1.30
2018-02-26T16:50:05.206Z,-1.30
2018-02-26T16:52:32.767Z,-1.30
2018-02-26T16:55:01.163Z,-1.30
2018-02-26T16:57:28.682Z,-1.20
2018-02-26T16:59:56.988Z,-1.20
2018-02-26T17:02:24.479Z,-1.20
2018-02-26T17:04:52.452Z,-1.20
2018-02-26T17:07:20.451Z,-1.30
2018-02-26T17:09:47.954Z,-1.30
2018-02-26T17:12:15.549Z,-1.30
2018-02-26T17:14:43.094Z,-1.40
2018-02-26T17:17:10.637Z,-1.40
2018-02-26T17:19:38.230Z,-1.40
2018-02-26T17:22:05.856Z,-1.40
2018-02-26T17:24:33.350Z,-1.40
2018-02-26T17:27:00.843Z,-1.40
2018-02-26T17:29:28.719Z,-1.40
2018-02-26T17:31:56.612Z,-1.50
2018-02-26T17:34:24.117Z,-1.50
2018-02-26T17:36:51.701Z,-1.50
2018-02-26T17:39:19.666Z,-1.60
2018-02-26T17:41:47.133Z,-1.60
2018-02-26T17:44:15.013Z,-1.70
2018-02-26T17:46:42.933Z,-1.70
2018-02-26T17:49:10.438Z,-1.70
2018-02-26T17:51:37.898Z,-1.80
2018-02-26T17:54:06.574Z,-1.80
2018-02-26T17:56:34.055Z,-1.80
2018-02-26T17:59:02.038Z,-1.80
2018-02-26T18:01:29.898Z,-1.90
2018-02-26T18:03:57.768Z,-1.90
2018-02-26T18:06:25.763Z,-1.90
2018-02-26T18:08:53.708Z,-1.90
2018-02-26T18:11:21.190Z,-1.90
2018-02-26T18:13:49.166Z,-1.90
2018-02-26T18:16:16.683Z,-1.90
2018-02-26T18:18:44.194Z,-1.80
2018-02-26T18:21:12.096Z,-1.80
2018-02-26T18:23:39.628Z,-1.80
2018-02-26T18:26:07.588Z,-1.70
2018-02-26T18:28:35.482Z,-1.70
2018-02-26T19:00:25.825Z,-1.70
2018-02-26T19:02:53.343Z,-1.70
2018-02-26T19:05:20.850Z,-1.70
2018-02-26T19:07:48.387Z,-1.70
2018-02-26T19:10:16.002Z,-1.70
2018-02-26T19:12:43.510Z,-1.80
2018-02-26T19:15:11.008Z,-1.80
2018-02-26T19:17:38.908Z,-1.90
2018-02-26T19:20:06.434Z,-1.90
2018-02-26T19:22:33.937Z,-1.90
2018-02-26T19:25:01.443Z,-1.90
2018-02-26T19:27:29.335Z,-2.00
2018-02-26T19:29:57.993Z,-2.10
2018-02-26T19:32:25.904Z,-2.00
2018-02-26T19:34:53.444Z,-2.00
2018-02-26T19:37:21.323Z,-2.10
2018-02-26T19:39:49.277Z,-2.10
2018-02-26T19:42:16.766Z,-2.10
2018-02-26T19:44:44.246Z,-2.10
2018-02-26T19:47:11.784Z,-2.10
2018-02-26T19:49:39.662Z,-1.90
2018-02-26T19:52:07.563Z,-1.90
2018-02-26T19:54:35.052Z,-1.90
2018-02-26T19:57:02.546Z,-2.00
2018-02-26T19:59:30.501Z,-2.00
2018-02-26T20:01:58.001Z,-2.00
2018-02-26T20:04:25.464Z,-2.00
2018-02-26T20:06:52.940Z,-2.00
2018-02-26T20:09:20.400Z,-2.00
2018-02-26T20:11:47.876Z,-2.00
2018-02-26T20:14:15.372Z,-2.00
2018-02-26T20:16:43.159Z,-2.00
2018-02-26T20:19:10.722Z,-2.10
2018-02-26T20:21:38.689Z,-2.00
2018-02-26T20:24:06.597Z,-2.00
2018-02-26T20:26:34.102Z,-1.90
2018-02-26T20:29:01.570Z,-2.00
2018-02-26T20:31:29.087Z,-2.00
2018-02-26T20:33:56.609Z,-2.10
2018-02-26T20:36:24.091Z,-2.10
2018-02-26T20:38:52.269Z,-2.10
2018-02-26T20:41:19.773Z,-2.10
2018-02-26T20:43:47.308Z,-2.10
2018-02-26T20:46:14.731Z,-2.20
2018-02-26T20:48:42.274Z,-2.20
2018-02-26T20:51:11.645Z,-2.20
2018-02-26T20:53:39.160Z,-2.30
2018-02-26T20:56:06.747Z,-2.30
2018-02-26T20:58:34.710Z,-2.20
2018-02-26T21:01:02.591Z,-2.10
2018-02-26T21:03:30.447Z,-2.10
2018-02-26T21:05:58.330Z,-2.00
2018-02-26T21:08:26.178Z,-2.00
2018-02-26T21:10:53.740Z,-2.00
2018-02-26T21:13:21.221Z,-2.00
2018-02-26T21:15:48.710Z,-1.90
2018-02-26T21:18:16.239Z,-1.90
2018-02-26T21:20:43.735Z,-1.80
2018-02-26T21:23:11.359Z,-1.80
2018-02-26T21:25:38.837Z,-1.90
2018-02-26T21:28:06.818Z,-1.90
2018-02-26T21:30:34.670Z,-1.90
2018-02-26T21:33:02.216Z,-1.90
2018-02-26T21:35:29.774Z,-1.90
2018-02-26T21:37:57.335Z,-1.90
2018-02-26T21:40:24.818Z,-1.90
2018-02-26T21:42:52.715Z,-1.90
2018-02-26T21:45:20.574Z,-1.90
2018-02-26T21:47:48.539Z,-1.90
2018-02-26T21:50:16.436Z,-1.80
2018-02-26T21:52:44.342Z,-1.80
2018-02-26T21:55:11.791Z,-1.80
2018-02-26T21:57:39.307Z,-1.90
2018-02-26T22:00:06.770Z,-1.90
2018-02-26T22:02:34.680Z,-1.90
2018-02-26T22:05:02.171Z,-1.90
2018-02-26T22:07:29.656Z,-1.90
2018-02-26T22:09:57.136Z,-1.90
2018-02-26T22:12:25.855Z,-1.90
2018-02-26T22:14:53.889Z,-1.90
2018-02-26T22:17:21.457Z,-1.90
2018-02-26T22:19:49.433Z,-1.90
2018-02-26T22:22:16.948Z,-1.90
2018-02-26T22:24:44.442Z,-1.90
2018-02-26T22:27:12.079Z,-1.90
2018-02-26T22:29:39.489Z,-1.80
2018-02-26T22:32:07.456Z,-1.90
2018-02-26T22:34:35.374Z,-1.90
2018-02-26T22:37:02.881Z,-1.80
2018-02-26T22:39:30.375Z,-1.80
2018-02-26T22:41:57.934Z,-1.80
2018-02-26T22:44:25.817Z,-1.80
2018-02-26T22:46:53.282Z,-1.80
2018-02-26T22:49:20.782Z,-1.80
2018-02-26T22:51:48.386Z,-1.80
2018-02-26T22:54:16.270Z,-1.80
2018-02-26T22:56:43.820Z,-1.80
2018-02-26T22:59:11.780Z,-1.80
2018-02-26T23:01:39.413Z,-1.80
2018-02-26T23:04:06.893Z,-1.80
2018-02-26T23:06:34.382Z,-1.80
2018-02-26T23:09:02.237Z,-1.80
2018-02-26T23:11:29.705Z,-1.80
2018-02-26T23:13:57.161Z,-1.70
2018-02-26T23:16:25.146Z,-1.70
2018-02-26T23:18:52.697Z,-1.70
2018-02-26T23:21:20.242Z,-1.60
2018-02-26T23:23:47.726Z,-1.50
2018-02-26T23:26:15.591Z,-1.50
2018-02-26T23:28:43.072Z,-1.40
2018-02-26T23:31:10.609Z,-1.50
2018-02-26T23:33:38.084Z,-1.50
2018-02-26T23:36:05.543Z,-1.50
2018-02-26T23:38:34.217Z,-1.50
2018-02-26T23:41:02.529Z,-1.50
2018-02-26T23:43:30.399Z,-1.50
2018-02-26T23:45:58.290Z,-1.40
2018-02-26T23:48:25.791Z,-1.40
2018-02-26T23:50:53.283Z,-1.50
2018-02-26T23:53:20.839Z,-1.50
2018-02-26T23:55:48.298Z,-1.50
2018-02-26T23:58:15.803Z,-1.50
